createdAt,value
2023-04-30T00:01:15.369Z,14.82
2023-04-30T00:03:42.780Z,14.05
2023-04-30T00:06:10.101Z,14.60
2023-04-30T00:08:37.372Z,14.85
2023-04-30T00:11:04.806Z,13.55
2023-04-30T00:13:32.030Z,14.93
2023-04-30T00:15:59.325Z,15.18
2023-04-30T00:18:26.639Z,15.40
2023-04-30T00:20:53.901Z,14.23
2023-04-30T00:23:21.208Z,15.23
2023-04-30T00:25:48.452Z,14.13
2023-04-30T00:28:15.699Z,14.25
2023-04-30T00:30:42.967Z,13.77
2023-04-30T00:33:10.444Z,14.68
2023-04-30T00:35:37.767Z,14.75
2023-04-30T00:38:05.865Z,14.10
2023-04-30T00:40:35.026Z,13.52
2023-04-30T00:43:02.514Z,14.98
2023-04-30T00:45:31.290Z,15.37
2023-04-30T00:47:58.651Z,14.55
2023-04-30T00:50:26.041Z,13.38
2023-04-30T00:52:53.487Z,14.65
2023-04-30T00:55:20.892Z,17.02
2023-04-30T00:57:48.519Z,16.58
2023-04-30T01:00:15.962Z,16.08
2023-04-30T01:02:43.349Z,15.73
2023-04-30T01:05:10.991Z,14.20
2023-04-30T01:07:39.476Z,13.73
2023-04-30T01:10:07.377Z,16.67
2023-04-30T01:12:50.014Z,16.05
2023-04-30T01:15:24.590Z,16.60
2023-04-30T01:18:07.667Z,14.60
2023-04-30T01:20:35.517Z,16.23
2023-04-30T01:23:20.341Z,16.15
2023-04-30T01:26:06.513Z,15.60
2023-04-30T01:28:36.685Z,16.05
2023-04-30T01:31:04.063Z,16.85
2023-04-30T01:33:32.133Z,14.30
2023-04-30T01:36:18.299Z,14.13
2023-04-30T01:38:45.687Z,15.48
2023-04-30T01:41:31.450Z,15.38
2023-04-30T01:44:18.399Z,14.88
2023-04-30T01:46:48.501Z,14.50
2023-04-30T01:49:27.764Z,16.40
2023-04-30T01:54:49.946Z,15.90
2023-04-30T01:57:20.957Z,15.00
2023-04-30T01:59:48.308Z,15.60
2023-04-30T02:02:15.980Z,15.07
2023-04-30T02:04:43.195Z,16.83
2023-04-30T02:07:10.723Z,14.25
2023-04-30T02:09:37.973Z,15.55
2023-04-30T02:12:05.764Z,16.90
2023-04-30T02:14:32.992Z,16.90
2023-04-30T02:17:00.286Z,14.93
2023-04-30T02:19:27.849Z,13.88
2023-04-30T02:21:55.062Z,14.57
2023-04-30T02:24:22.418Z,16.25
2023-04-30T02:26:49.654Z,14.23
2023-04-30T02:29:17.405Z,12.98
2023-04-30T02:31:44.890Z,13.27
2023-04-30T02:34:12.174Z,14.93
2023-04-30T02:36:39.439Z,14.52
2023-04-30T02:39:06.652Z,13.23
2023-04-30T02:41:33.850Z,13.95
2023-04-30T02:44:01.332Z,14.00
2023-04-30T02:46:29.243Z,13.52
2023-04-30T02:48:56.640Z,13.90
2023-04-30T02:51:23.929Z,14.55
2023-04-30T02:53:51.900Z,14.02
2023-04-30T02:56:19.096Z,13.80
2023-04-30T02:58:46.473Z,13.00
2023-04-30T03:01:14.456Z,13.48
2023-04-30T03:03:41.946Z,14.52
2023-04-30T03:06:09.325Z,12.55
2023-04-30T03:08:36.573Z,14.35
2023-04-30T03:11:03.808Z,14.73
2023-04-30T03:13:31.105Z,15.05
2023-04-30T03:16:01.879Z,15.45
2023-04-30T03:18:29.640Z,15.60
2023-04-30T03:20:57.264Z,14.23
2023-04-30T03:23:24.778Z,15.23
2023-04-30T03:25:52.242Z,16.05
2023-04-30T03:28:19.831Z,15.65
2023-04-30T03:30:47.422Z,13.85
2023-04-30T03:33:14.668Z,13.70
2023-04-30T03:35:41.984Z,14.80
2023-04-30T03:38:09.296Z,13.60
2023-04-30T03:40:36.551Z,14.98
2023-04-30T03:43:03.833Z,15.23
2023-04-30T03:45:31.282Z,15.80
2023-04-30T03:47:58.721Z,17.95
2023-04-30T03:50:26.243Z,15.07
2023-04-30T03:52:53.503Z,14.82
2023-04-30T03:55:20.800Z,17.38
2023-04-30T03:57:48.144Z,15.57
2023-04-30T04:00:15.637Z,15.35
2023-04-30T04:02:48.116Z,15.55
2023-04-30T04:05:15.896Z,16.83
2023-04-30T04:07:45.247Z,15.60
2023-04-30T04:10:12.957Z,15.65
2023-04-30T04:12:40.226Z,15.68
2023-04-30T04:15:07.836Z,15.77
2023-04-30T04:17:35.386Z,15.55
2023-04-30T04:20:02.711Z,15.38
2023-04-30T04:22:30.105Z,16.25
2023-04-30T04:24:57.457Z,16.60
2023-04-30T04:27:25.238Z,16.40
2023-04-30T04:29:52.938Z,13.38
2023-04-30T04:32:22.717Z,15.40
2023-04-30T04:34:50.402Z,14.38
2023-04-30T04:37:17.737Z,16.13
2023-04-30T04:39:45.155Z,14.75
2023-04-30T04:42:13.280Z,15.45
2023-04-30T04:44:41.355Z,14.57
2023-04-30T04:47:10.102Z,14.25
2023-04-30T04:49:37.304Z,10.35
2023-04-30T04:52:05.409Z,14.63
2023-04-30T04:54:32.640Z,13.25
2023-04-30T04:56:59.878Z,14.70
2023-04-30T04:59:27.269Z,14.07
2023-04-30T05:01:56.378Z,12.80
2023-04-30T05:04:23.707Z,12.70
2023-04-30T05:06:50.984Z,14.13
2023-04-30T05:09:18.378Z,14.15
2023-04-30T05:11:46.204Z,14.07
2023-04-30T05:14:13.455Z,13.25
2023-04-30T05:16:40.794Z,12.38
2023-04-30T05:19:09.735Z,12.70
2023-04-30T05:21:37.002Z,13.15
2023-04-30T05:24:04.346Z,15.10
2023-04-30T05:26:31.520Z,12.35
2023-04-30T05:28:58.740Z,13.35
2023-04-30T05:31:26.039Z,13.95
2023-04-30T05:33:53.280Z,13.48
2023-04-30T05:36:20.664Z,12.32
2023-04-30T05:38:47.882Z,11.75
2023-04-30T05:41:15.112Z,13.02
2023-04-30T05:43:42.361Z,12.90
2023-04-30T05:46:09.625Z,11.93
2023-04-30T05:48:36.944Z,10.30
2023-04-30T05:51:05.662Z,12.48
2023-04-30T05:53:32.910Z,9.50
2023-04-30T05:56:00.246Z,11.25
2023-04-30T05:58:27.491Z,10.60
2023-04-30T06:00:54.760Z,10.38
2023-04-30T06:03:22.652Z,11.27
2023-04-30T06:05:50.166Z,10.32
2023-04-30T06:08:17.392Z,11.07
2023-04-30T06:10:44.806Z,9.43
2023-04-30T06:13:12.059Z,9.98
2023-04-30T06:15:39.336Z,10.77
2023-04-30T06:18:06.797Z,9.60
2023-04-30T06:20:34.256Z,10.07
2023-04-30T06:23:03.818Z,9.55
2023-04-30T06:25:31.083Z,8.43
2023-04-30T06:27:58.316Z,9.43
2023-04-30T06:30:25.572Z,9.15
2023-04-30T06:32:52.894Z,8.63
2023-04-30T06:35:20.237Z,8.27
2023-04-30T06:37:47.501Z,7.22
2023-04-30T06:40:14.814Z,7.60
2023-04-30T06:42:42.077Z,7.63
2023-04-30T06:45:09.629Z,8.00
2023-04-30T06:47:38.152Z,7.65
2023-04-30T06:50:05.715Z,7.30
2023-04-30T06:52:32.967Z,8.20
2023-04-30T06:55:00.956Z,7.53
2023-04-30T06:57:28.370Z,7.32
2023-04-30T06:59:57.075Z,7.78
2023-04-30T07:02:24.559Z,6.90
2023-04-30T07:04:51.848Z,7.05
2023-04-30T07:07:19.142Z,7.60
2023-04-30T07:09:46.383Z,7.25
2023-04-30T07:12:13.760Z,7.10
2023-04-30T07:14:41.113Z,6.75
2023-04-30T07:17:08.340Z,7.78
2023-04-30T07:19:35.600Z,7.20
2023-04-30T07:22:03.017Z,6.70
2023-04-30T07:24:30.280Z,7.45
2023-04-30T07:26:59.030Z,6.28
2023-04-30T07:29:26.290Z,7.00
2023-04-30T07:31:53.600Z,6.82
2023-04-30T07:34:20.961Z,6.28
2023-04-30T07:36:49.170Z,7.07
2023-04-30T07:39:17.820Z,8.18
2023-04-30T07:41:45.101Z,6.55
2023-04-30T07:44:12.342Z,7.85
2023-04-30T07:46:39.747Z,6.85
2023-04-30T07:49:07.134Z,6.90
2023-04-30T07:51:34.431Z,7.28
2023-04-30T07:54:01.845Z,7.10
2023-04-30T07:56:29.053Z,7.03
2023-04-30T07:58:56.362Z,6.43
2023-04-30T08:01:23.602Z,6.63
2023-04-30T08:03:51.030Z,6.20
2023-04-30T08:06:18.321Z,6.18
2023-04-30T08:08:45.896Z,6.10
2023-04-30T08:11:13.183Z,6.25
2023-04-30T08:13:40.605Z,6.07
2023-04-30T08:16:08.345Z,5.95
2023-04-30T08:18:35.707Z,6.00
2023-04-30T08:21:02.932Z,6.60
2023-04-30T08:23:30.258Z,6.05
2023-04-30T08:25:57.490Z,6.43
2023-04-30T08:28:24.681Z,6.63
2023-04-30T08:30:52.048Z,5.53
2023-04-30T08:33:19.315Z,6.70
2023-04-30T08:35:46.638Z,6.25
2023-04-30T08:38:13.948Z,6.07
2023-04-30T08:43:12.962Z,5.85
2023-04-30T08:45:41.753Z,6.17
2023-04-30T08:48:15.722Z,4.90
2023-04-30T08:50:43.309Z,4.72
2023-04-30T08:53:11.315Z,5.80
2023-04-30T08:55:39.696Z,4.68
2023-04-30T08:58:07.461Z,4.75
2023-04-30T09:00:36.398Z,4.70
2023-04-30T09:03:03.833Z,4.20
2023-04-30T09:05:31.308Z,4.80
2023-04-30T09:08:03.605Z,4.35
2023-04-30T09:10:35.040Z,4.32
2023-04-30T09:13:06.387Z,3.67
2023-04-30T09:15:34.515Z,3.35
2023-04-30T09:18:11.602Z,3.28
2023-04-30T09:20:39.202Z,3.20
2023-04-30T09:23:07.854Z,4.13
2023-04-30T09:25:42.050Z,4.82
2023-04-30T09:28:10.408Z,4.65
2023-04-30T09:30:37.900Z,4.00
2023-04-30T09:33:05.752Z,4.22
2023-04-30T09:35:34.090Z,4.60
2023-04-30T09:38:04.835Z,4.10
2023-04-30T09:40:40.345Z,4.78
2023-04-30T09:43:07.847Z,5.03
2023-04-30T09:45:47.308Z,4.65
2023-04-30T09:48:18.426Z,4.32
2023-04-30T09:50:46.232Z,5.57
2023-04-30T09:53:14.359Z,4.55
2023-04-30T09:55:45.709Z,4.78
2023-04-30T09:58:13.624Z,4.35
2023-04-30T10:00:41.204Z,4.63
2023-04-30T10:03:13.454Z,5.10
2023-04-30T10:05:47.035Z,4.45
2023-04-30T10:08:22.688Z,5.07
2023-04-30T10:10:52.037Z,4.85
2023-04-30T10:13:20.533Z,4.63
2023-04-30T10:15:50.698Z,3.70
2023-04-30T10:18:22.959Z,4.18
2023-04-30T10:20:51.616Z,4.30
2023-04-30T10:23:18.910Z,3.83
2023-04-30T10:25:46.265Z,4.55
2023-04-30T10:28:13.790Z,3.70
2023-04-30T10:30:43.462Z,4.25
2023-04-30T10:33:19.433Z,3.53
2023-04-30T10:35:55.610Z,4.90
2023-04-30T10:38:24.958Z,3.53
2023-04-30T10:40:57.318Z,4.40
2023-04-30T10:43:25.129Z,3.95
2023-04-30T10:45:52.685Z,3.85
2023-04-30T10:48:26.852Z,4.22
2023-04-30T10:50:56.777Z,4.00
2023-04-30T10:53:26.020Z,4.03
2023-04-30T10:56:00.623Z,3.53
2023-04-30T10:58:30.659Z,3.70
2023-04-30T11:01:19.730Z,3.65
2023-04-30T11:04:06.540Z,4.03
2023-04-30T11:06:53.904Z,4.05
2023-04-30T11:09:25.232Z,3.53
2023-04-30T11:12:02.961Z,3.88
2023-04-30T11:14:32.461Z,4.10
2023-04-30T11:17:02.988Z,4.32
2023-04-30T11:19:30.549Z,3.95
2023-04-30T11:22:07.251Z,4.15
2023-04-30T11:24:53.351Z,3.50
2023-04-30T11:27:21.991Z,3.38
2023-04-30T11:29:50.566Z,3.60
2023-04-30T11:32:18.733Z,4.40
2023-04-30T11:34:46.176Z,3.42
2023-04-30T11:37:14.891Z,3.95
2023-04-30T11:39:43.661Z,4.25
2023-04-30T11:42:11.231Z,3.80
2023-04-30T11:44:38.752Z,4.65
2023-04-30T11:47:06.547Z,4.18
2023-04-30T11:49:34.068Z,3.90
2023-04-30T11:52:01.299Z,3.88
2023-04-30T11:54:31.831Z,4.00
2023-04-30T11:57:04.114Z,4.03
2023-04-30T11:59:32.065Z,3.83
2023-04-30T12:01:59.535Z,3.70
2023-04-30T12:04:27.422Z,3.80
2023-04-30T12:06:54.775Z,4.35
2023-04-30T12:09:22.002Z,4.20
2023-04-30T12:11:49.330Z,3.75
2023-04-30T12:14:16.590Z,4.60
2023-04-30T12:16:51.133Z,4.15
2023-04-30T12:19:19.155Z,4.20
2023-04-30T12:21:47.409Z,3.53
2023-04-30T12:24:18.450Z,4.30
2023-04-30T12:26:46.135Z,3.90
2023-04-30T12:29:17.404Z,4.15
2023-04-30T12:31:45.786Z,3.85
2023-04-30T12:34:13.746Z,4.18
2023-04-30T12:36:44.527Z,3.53
2023-04-30T12:39:16.417Z,4.80
2023-04-30T12:41:48.508Z,4.72
2023-04-30T12:44:19.927Z,3.65
2023-04-30T12:46:50.870Z,3.70
2023-04-30T12:49:25.248Z,3.55
2023-04-30T12:51:53.038Z,3.53
2023-04-30T12:54:30.282Z,3.40
2023-04-30T12:57:04.793Z,3.53
2023-04-30T12:59:32.884Z,3.03
2023-04-30T13:02:10.477Z,2.77
2023-04-30T13:04:38.120Z,3.20
2023-04-30T13:07:05.722Z,3.40
2023-04-30T13:09:36.761Z,3.20
2023-04-30T13:12:04.644Z,3.28
2023-04-30T13:14:32.845Z,3.72
2023-04-30T13:17:01.466Z,3.78
2023-04-30T13:19:30.317Z,3.15
2023-04-30T13:24:25.053Z,3.85
2023-04-30T13:26:52.344Z,3.47
2023-04-30T13:29:22.221Z,3.92
2023-04-30T13:31:49.956Z,3.22
2023-04-30T13:34:17.328Z,3.67
2023-04-30T13:36:46.679Z,3.20
2023-04-30T13:39:13.984Z,3.15
2023-04-30T13:41:41.217Z,3.50
2023-04-30T13:44:08.558Z,3.40
2023-04-30T13:46:36.117Z,2.88
2023-04-30T13:49:03.658Z,2.92
2023-04-30T13:51:31.456Z,3.25
2023-04-30T13:53:58.764Z,3.20
2023-04-30T13:56:26.330Z,3.17
2023-04-30T13:58:53.559Z,2.97
2023-04-30T14:01:20.908Z,3.30
2023-04-30T14:03:48.409Z,3.70
2023-04-30T14:06:15.903Z,3.40
2023-04-30T14:08:43.172Z,2.38
2023-04-30T14:11:11.049Z,2.75
2023-04-30T14:13:38.318Z,2.78
2023-04-30T14:16:05.727Z,3.35
2023-04-30T14:18:33.047Z,2.72
2023-04-30T14:21:00.425Z,2.78
2023-04-30T14:23:29.036Z,2.75
2023-04-30T14:25:56.485Z,2.35
2023-04-30T14:28:23.667Z,2.78
2023-04-30T14:30:51.049Z,2.20
2023-04-30T14:33:18.324Z,2.72
2023-04-30T14:35:46.350Z,2.08
2023-04-30T14:38:14.241Z,6.03
2023-04-30T14:40:41.521Z,3.80
2023-04-30T14:43:08.744Z,2.83
2023-04-30T14:45:36.169Z,2.30
2023-04-30T14:48:05.614Z,2.25
2023-04-30T14:50:33.222Z,2.15
2023-04-30T14:53:00.533Z,2.17
2023-04-30T14:55:27.787Z,2.13
2023-04-30T14:57:55.477Z,2.40
2023-04-30T15:00:22.685Z,1.95
2023-04-30T15:02:49.996Z,2.22
2023-04-30T15:05:17.328Z,3.35
2023-04-30T15:07:44.663Z,2.42
2023-04-30T15:10:12.063Z,2.20
2023-04-30T15:12:39.683Z,2.22
2023-04-30T15:15:07.921Z,1.80
2023-04-30T15:17:36.988Z,2.65
2023-04-30T15:20:04.914Z,4.38
2023-04-30T15:22:32.282Z,2.70
2023-04-30T15:24:59.812Z,2.05
2023-04-30T15:27:31.849Z,2.90
2023-04-30T15:30:00.534Z,2.40
2023-04-30T15:32:28.095Z,2.20
2023-04-30T15:34:55.390Z,2.13
2023-04-30T15:37:22.593Z,3.38
2023-04-30T15:39:50.061Z,2.78
2023-04-30T15:42:17.379Z,1.98
2023-04-30T15:44:44.590Z,2.40
2023-04-30T15:47:12.691Z,4.07
2023-04-30T15:49:40.008Z,2.40
2023-04-30T15:52:07.229Z,2.70
2023-04-30T15:54:34.507Z,3.15
2023-04-30T15:57:02.950Z,2.63
2023-04-30T15:59:30.801Z,2.53
2023-04-30T16:01:58.139Z,3.00
2023-04-30T16:04:25.494Z,2.70
2023-04-30T16:06:53.535Z,2.63
2023-04-30T16:09:20.974Z,3.23
2023-04-30T16:11:48.361Z,1.92
2023-04-30T16:14:15.838Z,3.22
2023-04-30T16:16:43.136Z,2.67
2023-04-30T16:19:12.361Z,1.92
2023-04-30T16:24:07.192Z,2.80
2023-04-30T16:26:37.327Z,3.03
2023-04-30T16:29:05.969Z,2.97
2023-04-30T16:31:33.297Z,2.45
2023-04-30T16:34:01.106Z,2.80
2023-04-30T16:36:28.381Z,6.90
2023-04-30T16:38:56.156Z,4.70
2023-04-30T16:41:23.479Z,2.83
2023-04-30T16:43:50.781Z,2.38
2023-04-30T16:46:18.742Z,4.25
2023-04-30T16:48:46.015Z,2.97
2023-04-30T16:51:13.791Z,4.75
2023-04-30T16:53:41.249Z,3.80
2023-04-30T16:56:08.550Z,3.55
2023-04-30T16:58:35.891Z,3.70
2023-04-30T17:01:03.214Z,3.05
2023-04-30T17:03:34.813Z,2.50
2023-04-30T17:06:02.499Z,3.33
2023-04-30T17:08:29.761Z,3.55
2023-04-30T17:10:57.018Z,3.42
2023-04-30T17:13:24.404Z,2.80
2023-04-30T17:15:51.878Z,3.17
2023-04-30T17:18:19.347Z,3.88
2023-04-30T17:20:47.938Z,3.95
2023-04-30T17:23:15.495Z,2.97
2023-04-30T17:25:43.130Z,2.58
2023-04-30T17:28:10.475Z,2.92
2023-04-30T17:30:38.263Z,4.30
2023-04-30T17:33:06.068Z,59.40
2023-04-30T17:35:33.989Z,6.60
2023-04-30T17:38:01.484Z,4.93
2023-04-30T17:40:28.759Z,3.88
2023-04-30T17:42:56.171Z,12.15
2023-04-30T17:45:23.601Z,4.72
2023-04-30T17:47:51.044Z,5.22
2023-04-30T17:50:18.368Z,3.30
2023-04-30T17:52:45.794Z,3.28
2023-04-30T17:55:13.718Z,8.52
2023-04-30T17:57:41.115Z,5.88
2023-04-30T18:00:08.920Z,3.70
2023-04-30T18:02:43.325Z,3.38
2023-04-30T18:05:11.709Z,4.15
2023-04-30T18:07:39.453Z,4.70
2023-04-30T18:10:07.337Z,4.78
2023-04-30T18:12:34.653Z,3.60
2023-04-30T18:15:01.963Z,4.57
2023-04-30T18:17:29.270Z,4.00
2023-04-30T18:19:56.970Z,3.85
2023-04-30T18:22:24.550Z,4.20
2023-04-30T18:24:51.821Z,3.55
2023-04-30T18:27:19.742Z,4.40
2023-04-30T18:29:48.361Z,4.50
2023-04-30T18:32:15.923Z,3.42
2023-04-30T18:34:43.294Z,4.22
2023-04-30T18:37:10.990Z,3.65
2023-04-30T18:39:38.379Z,3.95
2023-04-30T18:42:05.830Z,4.43
2023-04-30T18:44:33.126Z,3.85
2023-04-30T18:47:00.434Z,3.30
2023-04-30T18:49:27.725Z,3.40
2023-04-30T18:51:55.434Z,3.60
2023-04-30T18:54:22.921Z,2.97
2023-04-30T18:56:50.551Z,3.45
2023-04-30T18:59:17.833Z,3.30
2023-04-30T19:01:45.144Z,3.00
2023-04-30T19:04:15.868Z,3.60
2023-04-30T19:06:44.520Z,3.85
2023-04-30T19:09:13.313Z,3.10
2023-04-30T19:11:41.212Z,3.50
2023-04-30T19:14:08.456Z,3.28
2023-04-30T19:16:35.829Z,3.30
2023-04-30T19:19:03.847Z,4.28
2023-04-30T19:21:32.267Z,3.83
2023-04-30T19:23:59.504Z,5.70
2023-04-30T19:26:27.862Z,3.90
2023-04-30T19:28:55.242Z,3.42
2023-04-30T19:31:22.856Z,3.80
2023-04-30T19:33:50.442Z,3.55
2023-04-30T19:36:18.079Z,3.65
2023-04-30T19:38:45.568Z,4.10
2023-04-30T19:41:12.910Z,4.03
2023-04-30T19:43:40.296Z,3.92
2023-04-30T19:46:07.756Z,4.80
2023-04-30T19:48:35.205Z,4.18
2023-04-30T19:51:04.761Z,4.20
2023-04-30T19:53:32.092Z,4.50
2023-04-30T19:56:01.575Z,4.60
2023-04-30T19:58:28.983Z,5.07
2023-04-30T20:00:56.464Z,5.38
2023-04-30T20:03:25.355Z,5.32
2023-04-30T20:05:53.125Z,5.40
2023-04-30T20:08:21.870Z,5.45
2023-04-30T20:10:50.203Z,4.60
2023-04-30T20:13:17.854Z,5.77
2023-04-30T20:15:45.464Z,5.00
2023-04-30T20:18:12.958Z,4.45
2023-04-30T20:20:40.272Z,4.80
2023-04-30T20:23:13.984Z,4.20
2023-04-30T20:25:42.966Z,5.57
2023-04-30T20:28:10.304Z,5.97
2023-04-30T20:30:37.616Z,6.53
2023-04-30T20:33:05.037Z,5.20
2023-04-30T20:35:32.468Z,4.90
2023-04-30T20:38:00.488Z,4.82
2023-04-30T20:40:28.052Z,5.07
2023-04-30T20:42:55.474Z,4.90
2023-04-30T20:45:23.719Z,5.78
2023-04-30T20:47:51.082Z,4.93
2023-04-30T20:50:20.358Z,4.68
2023-04-30T20:55:14.864Z,4.72
2023-04-30T20:57:42.224Z,4.22
2023-04-30T21:00:09.730Z,5.70
2023-04-30T21:02:37.229Z,5.03
2023-04-30T21:05:06.432Z,5.07
2023-04-30T21:10:08.348Z,5.93
2023-04-30T21:12:36.021Z,5.10
2023-04-30T21:15:03.545Z,5.30
2023-04-30T21:17:31.097Z,5.40
2023-04-30T21:19:59.046Z,4.82
2023-04-30T21:22:26.240Z,5.13
2023-04-30T21:24:53.850Z,4.95
2023-04-30T21:27:21.745Z,5.20
2023-04-30T21:29:49.077Z,5.10
2023-04-30T21:32:16.806Z,5.60
2023-04-30T21:34:44.646Z,4.28
2023-04-30T21:37:11.969Z,4.95
2023-04-30T21:39:39.240Z,5.32
2023-04-30T21:42:06.694Z,5.80
2023-04-30T21:44:33.995Z,5.35
2023-04-30T21:47:01.307Z,5.80
2023-04-30T21:49:28.603Z,6.20
2023-04-30T21:51:57.891Z,5.60
2023-04-30T21:54:25.250Z,6.47
2023-04-30T21:56:52.531Z,5.28
2023-04-30T21:59:19.773Z,5.50
2023-04-30T22:01:47.190Z,6.43
2023-04-30T22:04:16.126Z,5.45
2023-04-30T22:06:43.479Z,6.53
2023-04-30T22:09:10.864Z,5.18
2023-04-30T22:11:38.130Z,5.22
2023-04-30T22:14:05.425Z,6.28
2023-04-30T22:16:33.376Z,6.53
2023-04-30T22:19:00.696Z,6.80
2023-04-30T22:21:27.949Z,6.15
2023-04-30T22:23:55.212Z,6.07
2023-04-30T22:26:25.244Z,6.93
2023-04-30T22:28:52.756Z,6.72
2023-04-30T22:31:20.809Z,5.95
2023-04-30T22:33:48.161Z,6.50
2023-04-30T22:36:15.422Z,6.53
2023-04-30T22:38:42.652Z,7.82
2023-04-30T22:41:10.068Z,6.47
2023-04-30T22:43:37.499Z,7.45
2023-04-30T22:46:04.910Z,6.43
2023-04-30T22:48:32.129Z,7.35
2023-04-30T22:50:59.539Z,6.93
2023-04-30T22:53:26.908Z,6.55
2023-04-30T22:55:54.934Z,7.10
2023-04-30T22:58:22.396Z,6.80
2023-04-30T23:00:49.867Z,6.70
2023-04-30T23:03:17.570Z,6.63
2023-04-30T23:05:44.996Z,6.57
2023-04-30T23:08:12.600Z,6.55
2023-04-30T23:10:39.902Z,6.20
2023-04-30T23:13:07.404Z,6.65
2023-04-30T23:15:34.847Z,6.80
2023-04-30T23:18:02.267Z,6.15
2023-04-30T23:20:29.562Z,6.20
2023-04-30T23:22:57.028Z,6.68
2023-04-30T23:25:24.331Z,6.32
2023-04-30T23:27:51.730Z,5.97
2023-04-30T23:30:19.310Z,6.22
2023-04-30T23:32:46.617Z,5.65
2023-04-30T23:35:13.871Z,6.13
2023-04-30T23:37:41.161Z,5.60
2023-04-30T23:40:09.714Z,6.57
2023-04-30T23:42:37.041Z,6.13
2023-04-30T23:45:04.826Z,6.03
2023-04-30T23:47:32.326Z,5.72
2023-04-30T23:49:59.631Z,5.47
2023-04-30T23:52:26.941Z,5.50
2023-04-30T23:54:54.378Z,5.55
2023-04-30T23:57:21.623Z,5.40
2023-04-30T23:59:48.852Z,5.30
